TimeCST,TemperatureF,Dew PointF,Humidity,Sea Level PressureIn,VisibilityMPH,Wind Direction,Wind SpeedMPH,Gust SpeedMPH,PrecipitationIn,Events,Conditions,WindDirDegrees,DateUTC
12:15 AM,8.6,1.4,73,29.89,10.0,South,6.9,-,N/A,,Scattered Clouds,190,2013-02-05 06:15:00
12:35 AM,8.6,1.4,73,29.89,10.0,SSW,6.9,-,N/A,,Scattered Clouds,200,2013-02-05 06:35:00
12:55 AM,8.6,1.4,73,29.89,10.0,SSW,8.1,-,N/A,,Clear,200,2013-02-05 06:55:00
1:15 AM,8.6,1.4,73,29.88,10.0,SSW,8.1,-,N/A,,Clear,200,2013-02-05 07:15:00
1:35 AM,8.6,-0.4,67,29.87,10.0,South,9.2,-,N/A,,Clear,190,2013-02-05 07:35:00
1:55 AM,8.6,-0.4,67,29.86,10.0,South,8.1,-,N/A,,Clear,190,2013-02-05 07:55:00
2:15 AM,6.8,-0.4,72,29.84,10.0,South,10.4,-,N/A,,Clear,190,2013-02-05 08:15:00
2:35 AM,8.6,-0.4,67,29.86,10.0,SSW,10.4,-,N/A,,Clear,210,2013-02-05 08:35:00
2:55 AM,8.6,-0.4,67,29.85,10.0,South,9.2,-,N/A,,Clear,190,2013-02-05 08:55:00
3:15 AM,10.4,-0.4,62,29.84,10.0,SSW,8.1,-,N/A,,Mostly Cloudy,200,2013-02-05 09:15:00
3:35 AM,10.4,-0.4,62,29.84,10.0,SSW,10.4,-,N/A,,Overcast,200,2013-02-05 09:35:00
3:55 AM,12.2,-0.4,57,29.84,10.0,SSW,11.5,-,N/A,,Overcast,210,2013-02-05 09:55:00
4:15 AM,12.2,1.4,62,29.83,10.0,SSW,10.4,-,N/A,,Overcast,200,2013-02-05 10:15:00
4:35 AM,12.2,1.4,62,29.83,7.0,SSW,9.2,-,N/A,Snow,Light Snow,200,2013-02-05 10:35:00
4:55 AM,12.2,5.0,73,29.81,3.0,South,9.2,-,N/A,Snow,Light Snow,190,2013-02-05 10:55:00
5:15 AM,12.2,8.6,85,29.80,5.0,South,9.2,-,N/A,Snow,Light Snow,180,2013-02-05 11:15:00
5:35 AM,12.2,10.4,92,29.81,2.5,SSW,10.4,-,N/A,Snow,Light Snow,200,2013-02-05 11:35:00
5:55 AM,12.2,10.4,92,29.80,2.5,SSW,12.7,-,N/A,Snow,Light Snow,200,2013-02-05 11:55:00
6:15 AM,12.2,12.2,100,29.79,10.0,South,11.5,-,N/A,Snow,Light Snow,190,2013-02-05 12:15:00
6:35 AM,12.2,12.2,100,29.75,10.0,South,18.4,-,N/A,,Overcast,190,2013-02-05 12:35:00
6:55 AM,14.0,14.0,100,29.78,10.0,SSW,10.4,-,N/A,,Overcast,200,2013-02-05 12:55:00
7:15 AM,14.0,14.0,100,29.78,10.0,SSW,13.8,-,N/A,,Overcast,200,2013-02-05 13:15:00
7:35 AM,15.8,14.0,93,29.78,10.0,SSW,10.4,-,N/A,,Overcast,200,2013-02-05 13:35:00
7:55 AM,15.8,15.8,100,29.78,10.0,South,12.7,-,N/A,,Overcast,190,2013-02-05 13:55:00
8:15 AM,17.6,17.6,100,29.76,10.0,South,15.0,-,N/A,,Overcast,190,2013-02-05 14:15:00
8:35 AM,19.4,17.6,93,29.76,10.0,SSW,13.8,-,N/A,,Overcast,200,2013-02-05 14:35:00
8:55 AM,19.4,19.4,100,29.77,10.0,SSW,12.7,20.7,N/A,,Overcast,210,2013-02-05 14:55:00
9:15 AM,19.4,19.4,100,29.76,7.0,SSW,13.8,-,N/A,,Overcast,210,2013-02-05 15:15:00
9:35 AM,21.2,19.4,93,29.76,10.0,SSW,10.4,-,N/A,,Overcast,210,2013-02-05 15:35:00
9:55 AM,21.2,21.2,100,29.76,7.0,SW,11.5,-,N/A,,Overcast,220,2013-02-05 15:55:00
10:15 AM,23.0,21.2,93,29.76,7.0,SW,13.8,-,N/A,,Overcast,220,2013-02-05 16:15:00
10:35 AM,24.8,23.0,93,29.76,7.0,SW,16.1,-,N/A,,Overcast,220,2013-02-05 16:35:00
10:55 AM,23.0,23.0,100,29.76,7.0,SW,15.0,-,N/A,,Overcast,220,2013-02-05 16:55:00
11:15 AM,24.8,23.0,93,29.76,0.5,SW,11.5,-,N/A,Snow,Light Snow,220,2013-02-05 17:15:00
11:35 AM,24.8,23.0,93,29.76,0.5,SW,15.0,-,N/A,Snow,Snow,230,2013-02-05 17:35:00
11:55 AM,24.8,24.8,100,29.75,0.5,SW,12.7,17.3,N/A,Snow,Light Snow,230,2013-02-05 17:55:00
12:15 PM,26.6,24.8,93,29.75,2.0,SW,12.7,-,N/A,Snow,Light Snow,230,2013-02-05 18:15:00
12:35 PM,26.6,26.6,100,29.76,1.8,WSW,16.1,-,N/A,Snow,Light Snow,240,2013-02-05 18:35:00
12:55 PM,28.4,26.6,93,29.76,4.0,WSW,16.1,20.7,N/A,,Overcast,250,2013-02-05 18:55:00
1:15 PM,28.4,26.6,93,29.75,5.0,West,13.8,-,N/A,Snow,Light Snow,260,2013-02-05 19:15:00
1:35 PM,30.2,26.6,86,29.77,5.0,West,16.1,20.7,N/A,,Overcast,270,2013-02-05 19:35:00
1:55 PM,30.2,26.6,86,29.78,7.0,West,15.0,18.4,N/A,,Overcast,280,2013-02-05 19:55:00
2:15 PM,28.4,26.6,93,29.79,7.0,West,15.0,-,N/A,,Overcast,280,2013-02-05 20:15:00
2:35 PM,30.2,26.6,86,29.79,10.0,West,13.8,-,N/A,,Overcast,280,2013-02-05 20:35:00
2:55 PM,30.2,26.6,86,29.81,10.0,West,9.2,-,N/A,,Overcast,280,2013-02-05 20:55:00
3:15 PM,30.2,26.6,86,29.82,10.0,West,8.1,-,N/A,,Overcast,280,2013-02-05 21:15:00
3:35 PM,30.2,26.6,86,29.83,10.0,West,9.2,-,N/A,,Overcast,280,2013-02-05 21:35:00
3:55 PM,30.2,28.4,93,29.84,10.0,West,10.4,-,N/A,,Overcast,280,2013-02-05 21:55:00
4:15 PM,30.2,28.4,93,29.85,10.0,West,8.1,-,N/A,,Overcast,280,2013-02-05 22:15:00
4:35 PM,30.2,28.4,93,29.86,10.0,WNW,8.1,-,N/A,,Overcast,300,2013-02-05 22:35:00
4:55 PM,30.2,28.4,93,29.87,10.0,WNW,5.8,-,N/A,,Overcast,300,2013-02-05 22:55:00
5:15 PM,30.2,28.4,93,29.88,10.0,NW,6.9,-,N/A,,Overcast,310,2013-02-05 23:15:00
5:35 PM,30.2,26.6,86,29.89,10.0,NW,5.8,-,N/A,,Overcast,320,2013-02-05 23:35:00
5:55 PM,30.2,28.4,93,29.91,10.0,NW,6.9,-,N/A,,Overcast,310,2013-02-05 23:55:00
6:15 PM,30.2,28.4,93,29.92,7.0,NW,4.6,-,N/A,,Overcast,320,2013-02-06 00:15:00
6:35 PM,30.2,28.4,93,29.93,10.0,NW,4.6,-,N/A,,Overcast,320,2013-02-06 00:35:00
6:55 PM,30.2,26.6,86,29.94,10.0,NW,6.9,-,N/A,,Overcast,320,2013-02-06 00:55:00
7:15 PM,30.2,24.8,80,29.95,10.0,NW,8.1,-,N/A,,Overcast,320,2013-02-06 01:15:00
7:35 PM,30.2,23.0,75,29.95,10.0,NW,6.9,-,N/A,,Overcast,310,2013-02-06 01:35:00
7:55 PM,30.2,23.0,75,29.96,10.0,NW,4.6,-,N/A,,Overcast,310,2013-02-06 01:55:00
8:15 PM,30.2,23.0,75,29.97,10.0,NW,8.1,-,N/A,,Overcast,310,2013-02-06 02:15:00
8:35 PM,30.2,23.0,75,29.97,10.0,NNW,5.8,-,N/A,,Overcast,330,2013-02-06 02:35:00
8:55 PM,30.2,23.0,75,29.98,10.0,NNW,4.6,-,N/A,,Overcast,330,2013-02-06 02:55:00
9:15 PM,30.2,21.2,69,29.99,10.0,North,4.6,-,N/A,,Overcast,350,2013-02-06 03:15:00
9:35 PM,28.4,21.2,74,30.00,10.0,North,5.8,-,N/A,,Overcast,360,2013-02-06 03:35:00
9:55 PM,28.4,21.2,74,30.01,10.0,North,6.9,-,N/A,,Overcast,350,2013-02-06 03:55:00
10:15 PM,28.4,21.2,74,30.02,10.0,North,8.1,-,N/A,,Overcast,350,2013-02-06 04:15:00
10:35 PM,28.4,19.4,69,30.04,10.0,NNW,3.5,-,N/A,,Overcast,340,2013-02-06 04:35:00
10:55 PM,26.6,19.4,74,30.04,10.0,North,9.2,-,N/A,,Overcast,350,2013-02-06 04:55:00
11:15 PM,26.6,17.6,69,30.04,10.0,North,8.1,-,N/A,,Mostly Cloudy,350,2013-02-06 05:15:00
11:35 PM,26.6,17.6,69,30.05,10.0,NNW,3.5,-,N/A,,Overcast,330,2013-02-06 05:35:00
11:55 PM,26.6,17.6,69,30.06,10.0,NNW,5.8,-,N/A,,Overcast,340,2013-02-06 05:55:00